sensor_id;sensor_type;location;lat;lon;timestamp;pressure;altitude;pressure_sealevel;temperature;humidity
68197;BME280;55019;49.382;11.358;2023-04-02T00:05:25;95720.66;;;6.24;100.00
68197;BME280;55019;49.382;11.358;2023-04-02T00:08:04;95730.28;;;6.30;100.00
68197;BME280;55019;49.382;11.358;2023-04-02T00:10:45;95735.09;;;6.33;100.00
68197;BME280;55019;49.382;11.358;2023-04-02T00:15:38;95738.00;;;6.30;100.00
68197;BME280;55019;49.382;11.358;2023-04-02T00:18:05;95731.41;;;6.27;100.00
68197;BME280;55019;49.382;11.358;2023-04-02T00:20:34;95732.50;;;6.17;100.00
68197;BME280;55019;49.382;11.358;2023-04-02T00:23:03;95739.06;;;6.19;100.00
68197;BME280;55019;49.382;11.358;2023-04-02T00:25:35;95734.91;;;6.26;100.00
68197;BME280;55019;49.382;11.358;2023-04-02T00:28:02;95741.66;;;6.27;100.00
68197;BME280;55019;49.382;11.358;2023-04-02T00:30:29;95743.88;;;6.22;100.00
68197;BME280;55019;49.382;11.358;2023-04-02T00:32:54;95741.66;;;6.35;100.00
68197;BME280;55019;49.382;11.358;2023-04-02T00:35:28;95747.44;;;6.37;100.00
68197;BME280;55019;49.382;11.358;2023-04-02T00:37:54;95753.22;;;6.31;100.00
68197;BME280;55019;49.382;11.358;2023-04-02T00:40:26;95749.69;;;6.32;100.00
68197;BME280;55019;49.382;11.358;2023-04-02T00:42:57;95751.47;;;6.40;100.00
68197;BME280;55019;49.382;11.358;2023-04-02T00:45:30;95754.69;;;6.58;100.00
68197;BME280;55019;49.382;11.358;2023-04-02T00:47:58;95754.84;;;6.40;100.00
68197;BME280;55019;49.382;11.358;2023-04-02T00:50:29;95756.47;;;6.41;100.00
68197;BME280;55019;49.382;11.358;2023-04-02T00:52:58;95743.59;;;6.33;100.00
68197;BME280;55019;49.382;11.358;2023-04-02T00:55:38;95754.38;;;6.45;100.00
68197;BME280;55019;49.382;11.358;2023-04-02T00:58:21;95750.97;;;6.28;100.00
68197;BME280;55019;49.382;11.358;2023-04-02T01:00:48;95756.72;;;6.30;100.00
68197;BME280;55019;49.382;11.358;2023-04-02T01:05:42;95745.78;;;6.12;100.00
68197;BME280;55019;49.382;11.358;2023-04-02T01:08:34;95759.16;;;6.32;100.00
68197;BME280;55019;49.382;11.358;2023-04-02T01:13:50;95764.13;;;6.33;100.00
68197;BME280;55019;49.382;11.358;2023-04-02T01:22:53;95772.44;;;6.27;100.00
68197;BME280;55019;49.382;11.358;2023-04-02T01:25:44;95777.41;;;6.21;100.00
68197;BME280;55019;49.382;11.358;2023-04-02T01:31:10;95768.75;;;6.22;100.00
68197;BME280;55019;49.382;11.358;2023-04-02T01:33:40;95770.47;;;6.13;100.00
68197;BME280;55019;49.382;11.358;2023-04-02T01:36:22;95775.47;;;6.15;100.00
68197;BME280;55019;49.382;11.358;2023-04-02T01:44:29;95782.34;;;6.14;100.00
68197;BME280;55019;49.382;11.358;2023-04-02T01:46:56;95783.94;;;6.15;100.00
68197;BME280;55019;49.382;11.358;2023-04-02T01:49:25;95780.28;;;6.18;100.00
68197;BME280;55019;49.382;11.358;2023-04-02T01:51:54;95784.94;;;6.22;100.00
68197;BME280;55019;49.382;11.358;2023-04-02T01:54:26;95785.56;;;6.24;100.00
68197;BME280;55019;49.382;11.358;2023-04-02T01:56:54;95790.06;;;6.22;100.00
68197;BME280;55019;49.382;11.358;2023-04-02T01:59:22;95791.00;;;6.13;100.00
68197;BME280;55019;49.382;11.358;2023-04-02T02:02:00;95795.19;;;6.22;100.00
68197;BME280;55019;49.382;11.358;2023-04-02T02:04:27;95797.31;;;6.27;100.00
68197;BME280;55019;49.382;11.358;2023-04-02T02:06:56;95798.25;;;6.26;100.00
68197;BME280;55019;49.382;11.358;2023-04-02T02:09:27;95781.72;;;6.20;100.00
68197;BME280;55019;49.382;11.358;2023-04-02T02:11:53;95800.31;;;6.22;100.00
68197;BME280;55019;49.382;11.358;2023-04-02T02:14:23;95807.69;;;6.25;100.00
68197;BME280;55019;49.382;11.358;2023-04-02T02:16:49;95790.25;;;6.29;100.00
68197;BME280;55019;49.382;11.358;2023-04-02T02:19:28;95811.31;;;6.40;100.00
68197;BME280;55019;49.382;11.358;2023-04-02T02:22:08;95792.47;;;6.24;100.00
68197;BME280;55019;49.382;11.358;2023-04-02T02:24:35;95820.22;;;6.28;100.00
68197;BME280;55019;49.382;11.358;2023-04-02T02:29:59;95813.03;;;6.32;100.00
68197;BME280;55019;49.382;11.358;2023-04-02T02:32:29;95826.22;;;6.53;100.00
68197;BME280;55019;49.382;11.358;2023-04-02T02:35:05;95819.13;;;6.39;100.00
68197;BME280;55019;49.382;11.358;2023-04-02T02:37:37;95812.69;;;6.27;100.00
68197;BME280;55019;49.382;11.358;2023-04-02T02:40:10;95823.75;;;6.27;100.00
68197;BME280;55019;49.382;11.358;2023-04-02T02:42:50;95820.88;;;6.30;100.00
68197;BME280;55019;49.382;11.358;2023-04-02T02:45:21;95827.94;;;6.36;100.00
68197;BME280;55019;49.382;11.358;2023-04-02T02:47:51;95831.13;;;6.30;100.00
68197;BME280;55019;49.382;11.358;2023-04-02T02:50:21;95833.22;;;6.27;100.00
68197;BME280;55019;49.382;11.358;2023-04-02T02:52:53;95829.69;;;6.28;100.00
68197;BME280;55019;49.382;11.358;2023-04-02T02:55:23;95833.34;;;6.25;100.00
68197;BME280;55019;49.382;11.358;2023-04-02T02:58:07;95837.56;;;6.34;100.00
68197;BME280;55019;49.382;11.358;2023-04-02T03:00:43;95846.19;;;6.25;100.00
68197;BME280;55019;49.382;11.358;2023-04-02T03:03:16;95843.28;;;6.20;100.00
68197;BME280;55019;49.382;11.358;2023-04-02T03:05:52;95856.28;;;6.19;100.00
68197;BME280;55019;49.382;11.358;2023-04-02T03:08:59;95853.22;;;6.23;100.00
68197;BME280;55019;49.382;11.358;2023-04-02T03:11:38;95860.66;;;6.34;100.00
68197;BME280;55019;49.382;11.358;2023-04-02T03:14:33;95857.88;;;6.20;100.00
68197;BME280;55019;49.382;11.358;2023-04-02T03:17:11;95864.00;;;6.27;100.00
68197;BME280;55019;49.382;11.358;2023-04-02T03:20:01;95855.47;;;6.26;100.00
68197;BME280;55019;49.382;11.358;2023-04-02T03:22:39;95860.66;;;6.34;100.00
68197;BME280;55019;49.382;11.358;2023-04-02T03:25:45;95868.50;;;6.33;100.00
68197;BME280;55019;49.382;11.358;2023-04-02T03:28:21;95869.25;;;6.25;100.00
68197;BME280;55019;49.382;11.358;2023-04-02T03:30:53;95878.28;;;6.37;100.00
68197;BME280;55019;49.382;11.358;2023-04-02T03:33:30;95866.88;;;6.24;100.00
68197;BME280;55019;49.382;11.358;2023-04-02T03:39:16;95872.78;;;6.24;100.00
68197;BME280;55019;49.382;11.358;2023-04-02T03:41:54;95880.06;;;6.37;100.00
68197;BME280;55019;49.382;11.358;2023-04-02T03:47:35;95879.69;;;6.24;100.00
68197;BME280;55019;49.382;11.358;2023-04-02T03:50:11;95880.78;;;6.21;100.00
68197;BME280;55019;49.382;11.358;2023-04-02T03:52:38;95892.06;;;6.36;100.00
68197;BME280;55019;49.382;11.358;2023-04-02T03:55:15;95889.81;;;6.33;100.00
68197;BME280;55019;49.382;11.358;2023-04-02T03:58:02;95896.22;;;6.29;100.00
68197;BME280;55019;49.382;11.358;2023-04-02T04:03:50;95896.84;;;6.23;100.00
68197;BME280;55019;49.382;11.358;2023-04-02T04:06:31;95904.13;;;6.36;100.00
68197;BME280;55019;49.382;11.358;2023-04-02T04:08:58;95905.88;;;6.35;100.00
68197;BME280;55019;49.382;11.358;2023-04-02T04:11:29;95909.25;;;6.36;100.00
68197;BME280;55019;49.382;11.358;2023-04-02T04:14:04;95910.44;;;6.49;100.00
68197;BME280;55019;49.382;11.358;2023-04-02T04:16:40;95909.44;;;6.42;100.00
68197;BME280;55019;49.382;11.358;2023-04-02T04:19:23;95920.25;;;6.28;100.00
68197;BME280;55019;49.382;11.358;2023-04-02T04:22:16;95920.19;;;6.46;100.00
68197;BME280;55019;49.382;11.358;2023-04-02T04:24:46;95929.03;;;6.43;100.00
68197;BME280;55019;49.382;11.358;2023-04-02T04:27:22;95924.19;;;6.40;100.00
68197;BME280;55019;49.382;11.358;2023-04-02T04:29:57;95935.66;;;6.28;100.00
68197;BME280;55019;49.382;11.358;2023-04-02T04:32:42;95941.31;;;6.32;100.00
68197;BME280;55019;49.382;11.358;2023-04-02T04:35:20;95941.00;;;6.35;100.00
68197;BME280;55019;49.382;11.358;2023-04-02T04:37:49;95943.03;;;6.31;100.00
68197;BME280;55019;49.382;11.358;2023-04-02T04:40:35;95946.72;;;6.54;100.00
68197;BME280;55019;49.382;11.358;2023-04-02T04:43:05;95943.63;;;6.51;100.00
68197;BME280;55019;49.382;11.358;2023-04-02T04:45:41;95951.97;;;6.53;100.00
68197;BME280;55019;49.382;11.358;2023-04-02T04:50:58;95933.50;;;6.41;100.00
68197;BME280;55019;49.382;11.358;2023-04-02T04:53:27;95955.13;;;6.39;100.00
68197;BME280;55019;49.382;11.358;2023-04-02T04:55:57;95966.22;;;6.39;100.00
68197;BME280;55019;49.382;11.358;2023-04-02T04:58:47;95965.28;;;6.48;100.00
68197;BME280;55019;49.382;11.358;2023-04-02T05:01:28;95980.56;;;6.32;100.00
68197;BME280;55019;49.382;11.358;2023-04-02T05:06:43;95985.50;;;6.51;100.00
68197;BME280;55019;49.382;11.358;2023-04-02T05:09:23;95981.34;;;6.50;100.00
68197;BME280;55019;49.382;11.358;2023-04-02T05:12:05;95984.56;;;6.52;100.00
68197;BME280;55019;49.382;11.358;2023-04-02T05:15:15;95993.22;;;6.51;100.00
68197;BME280;55019;49.382;11.358;2023-04-02T05:17:49;95993.88;;;6.53;100.00
68197;BME280;55019;49.382;11.358;2023-04-02T05:20:23;95996.09;;;6.48;100.00
68197;BME280;55019;49.382;11.358;2023-04-02T05:22:56;96004.47;;;6.58;100.00
68197;BME280;55019;49.382;11.358;2023-04-02T05:25:26;96003.00;;;6.56;100.00
68197;BME280;55019;49.382;11.358;2023-04-02T05:33:20;96010.06;;;6.54;100.00
68197;BME280;55019;49.382;11.358;2023-04-02T05:35:52;96007.66;;;6.52;100.00
68197;BME280;55019;49.382;11.358;2023-04-02T05:38:24;96014.13;;;6.39;100.00
68197;BME280;55019;49.382;11.358;2023-04-02T05:43:31;96022.69;;;6.47;100.00
68197;BME280;55019;49.382;11.358;2023-04-02T05:46:01;96027.38;;;6.52;100.00
68197;BME280;55019;49.382;11.358;2023-04-02T05:48:36;96030.75;;;6.52;100.00
68197;BME280;55019;49.382;11.358;2023-04-02T05:51:04;96033.50;;;6.59;100.00
68197;BME280;55019;49.382;11.358;2023-04-02T05:53:38;96030.09;;;6.50;100.00
68197;BME280;55019;49.382;11.358;2023-04-02T05:56:12;96041.16;;;6.51;100.00
68197;BME280;55019;49.382;11.358;2023-04-02T05:58:48;96045.81;;;6.47;100.00
68197;BME280;55019;49.382;11.358;2023-04-02T06:01:38;96050.41;;;6.44;100.00
68197;BME280;55019;49.382;11.358;2023-04-02T06:04:51;96046.16;;;6.52;100.00
68197;BME280;55019;49.382;11.358;2023-04-02T06:07:22;96044.25;;;6.54;100.00
68197;BME280;55019;49.382;11.358;2023-04-02T06:10:11;96048.41;;;6.55;100.00
68197;BME280;55019;49.382;11.358;2023-04-02T06:12:46;96065.06;;;6.51;100.00
68197;BME280;55019;49.382;11.358;2023-04-02T06:15:20;96064.13;;;6.52;100.00
68197;BME280;55019;49.382;11.358;2023-04-02T06:17:57;96074.22;;;6.54;100.00
68197;BME280;55019;49.382;11.358;2023-04-02T06:20:24;96069.81;;;6.64;100.00
68197;BME280;55019;49.382;11.358;2023-04-02T06:22:55;96072.47;;;6.80;100.00
68197;BME280;55019;49.382;11.358;2023-04-02T06:25:32;96079.78;;;6.67;100.00
68197;BME280;55019;49.382;11.358;2023-04-02T06:28:02;96087.56;;;6.57;100.00
68197;BME280;55019;49.382;11.358;2023-04-02T06:30:32;96082.09;;;6.52;100.00
68197;BME280;55019;49.382;11.358;2023-04-02T06:32:59;96080.53;;;6.59;100.00
68197;BME280;55019;49.382;11.358;2023-04-02T06:35:26;96083.47;;;6.72;100.00
68197;BME280;55019;49.382;11.358;2023-04-02T06:38:03;96083.44;;;6.64;100.00
68197;BME280;55019;49.382;11.358;2023-04-02T06:40:52;96083.88;;;6.60;100.00
68197;BME280;55019;49.382;11.358;2023-04-02T06:44:03;96095.31;;;6.65;100.00
68197;BME280;55019;49.382;11.358;2023-04-02T06:49:57;96109.50;;;6.77;100.00
68197;BME280;55019;49.382;11.358;2023-04-02T06:57:46;96123.47;;;6.75;100.00
68197;BME280;55019;49.382;11.358;2023-04-02T07:00:25;96116.03;;;6.89;100.00
68197;BME280;55019;49.382;11.358;2023-04-02T07:02:53;96119.81;;;6.85;100.00
68197;BME280;55019;49.382;11.358;2023-04-02T07:05:20;96127.03;;;6.82;100.00
68197;BME280;55019;49.382;11.358;2023-04-02T07:07:47;96124.56;;;6.98;100.00
68197;BME280;55019;49.382;11.358;2023-04-02T07:10:13;96126.03;;;7.00;100.00
68197;BME280;55019;49.382;11.358;2023-04-02T07:12:40;96136.63;;;6.97;100.00
68197;BME280;55019;49.382;11.358;2023-04-02T07:15:06;96119.28;;;6.99;100.00
68197;BME280;55019;49.382;11.358;2023-04-02T07:17:32;96125.44;;;7.06;100.00
68197;BME280;55019;49.382;11.358;2023-04-02T07:19:58;96136.03;;;7.11;100.00
68197;BME280;55019;49.382;11.358;2023-04-02T07:22:24;96140.84;;;7.06;100.00
68197;BME280;55019;49.382;11.358;2023-04-02T07:24:55;96136.44;;;7.24;100.00
68197;BME280;55019;49.382;11.358;2023-04-02T07:27:20;96138.22;;;7.23;100.00
68197;BME280;55019;49.382;11.358;2023-04-02T07:29:46;96140.03;;;7.39;100.00
68197;BME280;55019;49.382;11.358;2023-04-02T07:32:12;96144.28;;;7.48;100.00
68197;BME280;55019;49.382;11.358;2023-04-02T07:34:39;96151.25;;;7.38;100.00
68197;BME280;55019;49.382;11.358;2023-04-02T07:37:05;96149.97;;;7.34;100.00
68197;BME280;55019;49.382;11.358;2023-04-02T07:39:32;96148.81;;;7.62;100.00
68197;BME280;55019;49.382;11.358;2023-04-02T07:41:59;96152.75;;;7.48;100.00
68197;BME280;55019;49.382;11.358;2023-04-02T07:44:26;96149.97;;;7.34;100.00
68197;BME280;55019;49.382;11.358;2023-04-02T07:46:52;96169.13;;;7.39;100.00
68197;BME280;55019;49.382;11.358;2023-04-02T07:49:18;96173.44;;;7.39;100.00
68197;BME280;55019;49.382;11.358;2023-04-02T07:51:44;96182.81;;;7.14;100.00
68197;BME280;55019;49.382;11.358;2023-04-02T07:54:09;96183.38;;;7.34;100.00
68197;BME280;55019;49.382;11.358;2023-04-02T07:56:36;96177.88;;;7.62;100.00
68197;BME280;55019;49.382;11.358;2023-04-02T07:59:03;96193.50;;;7.35;100.00
68197;BME280;55019;49.382;11.358;2023-04-02T08:01:29;96203.94;;;7.34;100.00
68197;BME280;55019;49.382;11.358;2023-04-02T08:04:02;96198.72;;;7.51;100.00
68197;BME280;55019;49.382;11.358;2023-04-02T08:06:28;96195.88;;;7.62;100.00
68197;BME280;55019;49.382;11.358;2023-04-02T08:08:55;96197.38;;;7.39;100.00
68197;BME280;55019;49.382;11.358;2023-04-02T08:11:21;96204.69;;;7.52;100.00
68197;BME280;55019;49.382;11.358;2023-04-02T08:13:47;96203.16;;;7.67;100.00
68197;BME280;55019;49.382;11.358;2023-04-02T08:16:13;96206.72;;;7.40;100.00
68197;BME280;55019;49.382;11.358;2023-04-02T08:18:39;96212.00;;;7.39;100.00
68197;BME280;55019;49.382;11.358;2023-04-02T08:21:06;96224.00;;;7.30;100.00
68197;BME280;55019;49.382;11.358;2023-04-02T08:23:33;96216.88;;;7.50;100.00
68197;BME280;55019;49.382;11.358;2023-04-02T08:26:00;96222.72;;;7.60;100.00
68197;BME280;55019;49.382;11.358;2023-04-02T08:28:26;96225.22;;;7.44;100.00
68197;BME280;55019;49.382;11.358;2023-04-02T08:30:52;96226.19;;;7.43;100.00
68197;BME280;55019;49.382;11.358;2023-04-02T08:33:18;96229.13;;;7.56;100.00
68197;BME280;55019;49.382;11.358;2023-04-02T08:35:45;96240.63;;;7.44;100.00
68197;BME280;55019;49.382;11.358;2023-04-02T08:38:16;96240.69;;;7.52;100.00
68197;BME280;55019;49.382;11.358;2023-04-02T08:40:44;96251.66;;;7.36;100.00
68197;BME280;55019;49.382;11.358;2023-04-02T08:48:16;96259.97;;;7.30;100.00
68197;BME280;55019;49.382;11.358;2023-04-02T08:50:43;96255.50;;;7.32;100.00
68197;BME280;55019;49.382;11.358;2023-04-02T08:53:14;96266.66;;;7.41;100.00
68197;BME280;55019;49.382;11.358;2023-04-02T08:58:43;96276.00;;;7.75;100.00
68197;BME280;55019;49.382;11.358;2023-04-02T09:04:21;96281.91;;;7.68;100.00
68197;BME280;55019;49.382;11.358;2023-04-02T09:06:49;96291.38;;;7.67;100.00
68197;BME280;55019;49.382;11.358;2023-04-02T09:09:17;96300.28;;;7.81;100.00
68197;BME280;55019;49.382;11.358;2023-04-02T09:11:57;96301.16;;;7.89;100.00
68197;BME280;55019;49.382;11.358;2023-04-02T09:17:01;96306.69;;;7.77;100.00
68197;BME280;55019;49.382;11.358;2023-04-02T09:19:35;96313.16;;;7.81;100.00
68197;BME280;55019;49.382;11.358;2023-04-02T09:22:08;96317.38;;;7.90;100.00
68197;BME280;55019;49.382;11.358;2023-04-02T09:24:38;96322.06;;;7.94;100.00
68197;BME280;55019;49.382;11.358;2023-04-02T09:27:22;96324.34;;;7.72;100.00
68197;BME280;55019;49.382;11.358;2023-04-02T09:29:52;96323.66;;;7.62;100.00
68197;BME280;55019;49.382;11.358;2023-04-02T09:35:07;96337.69;;;8.18;100.00
68197;BME280;55019;49.382;11.358;2023-04-02T09:37:34;96346.59;;;8.40;100.00
68197;BME280;55019;49.382;11.358;2023-04-02T09:40:15;96351.41;;;8.35;100.00
68197;BME280;55019;49.382;11.358;2023-04-02T09:42:41;96351.50;;;8.17;100.00
68197;BME280;55019;49.382;11.358;2023-04-02T09:45:20;96347.91;;;8.44;100.00
68197;BME280;55019;49.382;11.358;2023-04-02T09:47:47;96359.66;;;8.46;100.00
68197;BME280;55019;49.382;11.358;2023-04-02T09:50:33;96365.09;;;8.10;100.00
68197;BME280;55019;49.382;11.358;2023-04-02T09:53:25;96366.94;;;8.17;100.00
68197;BME280;55019;49.382;11.358;2023-04-02T09:58:36;96379.50;;;8.54;100.00
68197;BME280;55019;49.382;11.358;2023-04-02T10:01:02;96382.75;;;8.63;99.06
68197;BME280;55019;49.382;11.358;2023-04-02T10:03:31;96385.13;;;8.24;99.28
68197;BME280;55019;49.382;11.358;2023-04-02T10:06:14;96393.31;;;8.45;100.00
68197;BME280;55019;49.382;11.358;2023-04-02T10:08:42;96395.78;;;8.29;100.00
68197;BME280;55019;49.382;11.358;2023-04-02T10:13:53;96405.03;;;7.71;100.00
68197;BME280;55019;49.382;11.358;2023-04-02T10:21:46;96414.53;;;7.96;100.00
68197;BME280;55019;49.382;11.358;2023-04-02T10:24:15;96418.00;;;7.44;100.00
68197;BME280;55019;49.382;11.358;2023-04-02T10:29:51;96417.94;;;7.79;100.00
68197;BME280;55019;49.382;11.358;2023-04-02T10:35:03;96425.09;;;7.67;100.00
68197;BME280;55019;49.382;11.358;2023-04-02T10:46:08;96445.81;;;7.66;99.73
68197;BME280;55019;49.382;11.358;2023-04-02T10:48:39;96444.06;;;7.49;99.75
68197;BME280;55019;49.382;11.358;2023-04-02T10:51:18;96451.69;;;7.58;98.33
68197;BME280;55019;49.382;11.358;2023-04-02T10:54:01;96462.31;;;7.63;98.14
68197;BME280;55019;49.382;11.358;2023-04-02T10:56:29;96465.28;;;7.68;100.00
68197;BME280;55019;49.382;11.358;2023-04-02T10:59:04;96458.19;;;7.88;100.00
68197;BME280;55019;49.382;11.358;2023-04-02T11:01:31;96473.66;;;7.53;96.83
68197;BME280;55019;49.382;11.358;2023-04-02T11:04:03;96473.19;;;7.22;100.00
68197;BME280;55019;49.382;11.358;2023-04-02T11:06:37;96488.25;;;7.17;100.00
68197;BME280;55019;49.382;11.358;2023-04-02T11:09:17;96479.59;;;7.18;100.00
68197;BME280;55019;49.382;11.358;2023-04-02T11:11:47;96495.41;;;7.14;100.00
68197;BME280;55019;49.382;11.358;2023-04-02T11:14:25;96492.06;;;7.31;100.00
68197;BME280;55019;49.382;11.358;2023-04-02T11:16:52;96486.25;;;7.29;100.00
68197;BME280;55019;49.382;11.358;2023-04-02T11:19:27;96509.38;;;7.29;100.00
68197;BME280;55019;49.382;11.358;2023-04-02T11:30:05;96518.38;;;7.42;95.72
68197;BME280;55019;49.382;11.358;2023-04-02T11:32:41;96522.34;;;7.10;96.60
68197;BME280;55019;49.382;11.358;2023-04-02T11:40:55;96533.47;;;7.55;98.39
68197;BME280;55019;49.382;11.358;2023-04-02T11:50:52;96548.97;;;7.18;97.92
68197;BME280;55019;49.382;11.358;2023-04-02T11:53:29;96548.34;;;7.07;98.98
68197;BME280;55019;49.382;11.358;2023-04-02T11:58:28;96563.84;;;7.42;98.12
68197;BME280;55019;49.382;11.358;2023-04-02T12:01:26;96559.72;;;7.31;97.37
68197;BME280;55019;49.382;11.358;2023-04-02T12:09:44;96575.47;;;6.83;99.73
68197;BME280;55019;49.382;11.358;2023-04-02T12:12:25;96573.41;;;7.22;98.96
68197;BME280;55019;49.382;11.358;2023-04-02T12:14:58;96584.25;;;7.43;99.41
68197;BME280;55019;49.382;11.358;2023-04-02T12:20:03;96587.34;;;7.47;97.30
68197;BME280;55019;49.382;11.358;2023-04-02T12:22:48;96594.88;;;7.31;96.60
68197;BME280;55019;49.382;11.358;2023-04-02T12:25:30;96589.06;;;7.29;96.88
68197;BME280;55019;49.382;11.358;2023-04-02T12:28:13;96602.00;;;7.37;97.73
68197;BME280;55019;49.382;11.358;2023-04-02T12:30:43;96597.91;;;7.17;95.07
68197;BME280;55019;49.382;11.358;2023-04-02T12:35:39;96607.06;;;6.83;98.86
68197;BME280;55019;49.382;11.358;2023-04-02T12:38:18;96609.91;;;6.80;98.51
68197;BME280;55019;49.382;11.358;2023-04-02T12:40:58;96613.75;;;6.67;98.93
68197;BME280;55019;49.382;11.358;2023-04-02T12:43:26;96622.25;;;6.67;100.00
68197;BME280;55019;49.382;11.358;2023-04-02T12:45:53;96626.72;;;6.65;99.25
68197;BME280;55019;49.382;11.358;2023-04-02T12:48:23;96622.94;;;6.60;98.80
68197;BME280;55019;49.382;11.358;2023-04-02T12:50:49;96627.09;;;6.80;98.85
68197;BME280;55019;49.382;11.358;2023-04-02T12:53:22;96617.81;;;6.60;98.66
68197;BME280;55019;49.382;11.358;2023-04-02T12:55:49;96629.84;;;6.59;97.72
68197;BME280;55019;49.382;11.358;2023-04-02T12:58:40;96647.59;;;6.99;100.00
68197;BME280;55019;49.382;11.358;2023-04-02T13:03:38;96646.25;;;7.31;96.12
68197;BME280;55019;49.382;11.358;2023-04-02T13:06:19;96645.69;;;7.37;96.01
68197;BME280;55019;49.382;11.358;2023-04-02T13:08:46;96648.09;;;7.48;96.69
68197;BME280;55019;49.382;11.358;2023-04-02T13:11:12;96646.41;;;7.56;97.11
68197;BME280;55019;49.382;11.358;2023-04-02T13:13:39;96643.63;;;7.50;93.59
68197;BME280;55019;49.382;11.358;2023-04-02T13:18:48;96656.53;;;7.31;94.17
68197;BME280;55019;49.382;11.358;2023-04-02T13:23:46;96662.44;;;7.14;94.91
68197;BME280;55019;49.382;11.358;2023-04-02T13:26:19;96654.91;;;6.84;98.47
68197;BME280;55019;49.382;11.358;2023-04-02T13:31:34;96663.56;;;6.83;96.45
68197;BME280;55019;49.382;11.358;2023-04-02T13:34:00;96667.75;;;7.03;96.87
68197;BME280;55019;49.382;11.358;2023-04-02T13:36:26;96666.22;;;7.19;94.49
68197;BME280;55019;49.382;11.358;2023-04-02T13:38:53;96673.06;;;6.73;97.35
68197;BME280;55019;49.382;11.358;2023-04-02T13:41:27;96683.72;;;6.88;97.04
68197;BME280;55019;49.382;11.358;2023-04-02T13:43:54;96680.59;;;6.94;95.64
68197;BME280;55019;49.382;11.358;2023-04-02T13:46:23;96678.19;;;6.92;96.63
68197;BME280;55019;49.382;11.358;2023-04-02T13:48:50;96683.72;;;6.97;96.21
68197;BME280;55019;49.382;11.358;2023-04-02T13:51:17;96694.16;;;6.67;96.10
68197;BME280;55019;49.382;11.358;2023-04-02T13:53:50;96672.56;;;6.41;95.59
68197;BME280;55019;49.382;11.358;2023-04-02T13:56:18;96679.56;;;6.20;96.92
68197;BME280;55019;49.382;11.358;2023-04-02T13:58:45;96693.72;;;6.05;94.71
68197;BME280;55019;49.382;11.358;2023-04-02T14:01:11;96699.78;;;6.04;97.74
68197;BME280;55019;49.382;11.358;2023-04-02T14:03:37;96693.72;;;6.05;95.50
68197;BME280;55019;49.382;11.358;2023-04-02T14:06:26;96701.97;;;6.37;97.79
68197;BME280;55019;49.382;11.358;2023-04-02T14:09:02;96694.94;;;6.20;94.85
68197;BME280;55019;49.382;11.358;2023-04-02T14:14:50;96717.94;;;6.50;95.92
68197;BME280;55019;49.382;11.358;2023-04-02T14:17:43;96720.09;;;6.45;94.87
68197;BME280;55019;49.382;11.358;2023-04-02T14:21:10;96722.50;;;6.37;94.25
68197;BME280;55019;49.382;11.358;2023-04-02T14:23:57;96739.97;;;6.43;93.06
68197;BME280;55019;49.382;11.358;2023-04-02T14:26:44;96739.09;;;6.14;91.55
68197;BME280;55019;49.382;11.358;2023-04-02T14:29:25;96745.72;;;6.17;92.74
68197;BME280;55019;49.382;11.358;2023-04-02T14:32:08;96735.88;;;5.82;94.12
68197;BME280;55019;49.382;11.358;2023-04-02T14:34:52;96749.38;;;5.84;94.94
68197;BME280;55019;49.382;11.358;2023-04-02T14:42:57;96763.75;;;5.66;91.34
68197;BME280;55019;49.382;11.358;2023-04-02T14:45:55;96757.91;;;5.85;92.23
68197;BME280;55019;49.382;11.358;2023-04-02T14:51:36;96765.25;;;5.69;90.83
68197;BME280;55019;49.382;11.358;2023-04-02T14:54:13;96773.34;;;5.74;90.80
68197;BME280;55019;49.382;11.358;2023-04-02T15:02:19;96788.59;;;5.46;90.46
68197;BME280;55019;49.382;11.358;2023-04-02T15:04:58;96794.84;;;5.53;89.36
68197;BME280;55019;49.382;11.358;2023-04-02T15:07:32;96791.84;;;5.48;88.58
68197;BME280;55019;49.382;11.358;2023-04-02T15:12:46;96796.47;;;5.33;90.39
68197;BME280;55019;49.382;11.358;2023-04-02T15:17:48;96800.91;;;5.31;90.07
68197;BME280;55019;49.382;11.358;2023-04-02T15:20:15;96804.41;;;5.30;89.19
68197;BME280;55019;49.382;11.358;2023-04-02T15:28:36;96814.16;;;5.36;88.65
68197;BME280;55019;49.382;11.358;2023-04-02T15:31:12;96816.63;;;5.38;87.78
68197;BME280;55019;49.382;11.358;2023-04-02T15:33:43;96821.94;;;5.35;87.84
68197;BME280;55019;49.382;11.358;2023-04-02T15:41:52;96828.22;;;5.42;85.99
68197;BME280;55019;49.382;11.358;2023-04-02T15:44:21;96821.22;;;5.44;87.43
68197;BME280;55019;49.382;11.358;2023-04-02T15:47:16;96826.28;;;5.34;88.05
68197;BME280;55019;49.382;11.358;2023-04-02T15:49:57;96837.31;;;5.55;88.91
68197;BME280;55019;49.382;11.358;2023-04-02T15:55:21;96856.19;;;5.34;84.94
68197;BME280;55019;49.382;11.358;2023-04-02T16:04:00;96856.41;;;5.42;83.70
68197;BME280;55019;49.382;11.358;2023-04-02T16:06:49;96861.16;;;5.46;83.89
68197;BME280;55019;49.382;11.358;2023-04-02T16:09:30;96874.69;;;5.17;84.63
68197;BME280;55019;49.382;11.358;2023-04-02T16:12:13;96867.44;;;5.22;83.54
68197;BME280;55019;49.382;11.358;2023-04-02T16:14:40;96864.34;;;5.07;85.59
68197;BME280;55019;49.382;11.358;2023-04-02T16:17:23;96863.69;;;5.26;85.57
68197;BME280;55019;49.382;11.358;2023-04-02T16:19:53;96867.34;;;4.92;85.65
68197;BME280;55019;49.382;11.358;2023-04-02T16:22:27;96879.16;;;5.04;84.45
68197;BME280;55019;49.382;11.358;2023-04-02T16:25:17;96874.09;;;4.93;85.34
68197;BME280;55019;49.382;11.358;2023-04-02T16:30:44;96893.22;;;5.09;85.76
68197;BME280;55019;49.382;11.358;2023-04-02T16:33:31;96896.25;;;5.14;81.95
68197;BME280;55019;49.382;11.358;2023-04-02T16:39:00;96896.22;;;4.83;82.90
68197;BME280;55019;49.382;11.358;2023-04-02T16:41:43;96903.72;;;4.64;82.29
68197;BME280;55019;49.382;11.358;2023-04-02T16:45:18;96902.66;;;4.77;83.19